In Rescue
 
December 15, 2019 7:00 PM EST
Weather Information
Wind Direction
  ---
Wind Speed
  00 kt (0 mph)
Wind Gust
  00 kt (0 mph)
Altimeter
30.12 in
Visibility
10 SM
Temperature
-03° C
27° F
Dewpoint
-10° C
14° F
Humidity
59%
1hr Rain Fall
00.00 in.
24hr Rain Fall
00.00 in.
Sky Condition
Scattered @ 3,600 ft
VFR

METAR KD95 160000Z AUTO 00000KT 10SM SCT036 M03/M10 A3012 RMK AO2 T10301096

FAA Disclaimer: The data displayed is for advisory purposes only and is not to be used for flight planning or operations.